createdAt,value
2023-05-05T00:00:16.056Z,72.05
2023-05-05T00:02:17.931Z,72.07
2023-05-05T00:04:22.536Z,72.37
2023-05-05T00:06:24.275Z,72.12
2023-05-05T00:08:25.884Z,71.90
2023-05-05T00:10:27.454Z,71.84
2023-05-05T00:12:29.146Z,71.84
2023-05-05T00:14:30.815Z,71.52
2023-05-05T00:16:32.405Z,71.90
2023-05-05T00:18:34.139Z,71.75
2023-05-05T00:20:35.865Z,71.51
2023-05-05T00:22:37.451Z,71.74
2023-05-05T00:24:38.898Z,71.60
2023-05-05T00:26:40.384Z,71.42
2023-05-05T00:28:41.853Z,71.49
2023-05-05T00:30:43.662Z,71.37
2023-05-05T00:32:47.799Z,71.41
2023-05-05T00:34:49.315Z,71.45
2023-05-05T00:36:50.792Z,71.06
2023-05-05T00:38:52.331Z,71.48
2023-05-05T00:40:53.829Z,71.53
2023-05-05T00:42:55.564Z,71.16
2023-05-05T00:44:57.462Z,71.41
2023-05-05T00:46:59.070Z,71.39
2023-05-05T00:49:01.015Z,71.30
2023-05-05T00:51:02.596Z,71.73
2023-05-05T00:53:06.116Z,71.30
2023-05-05T00:55:08.236Z,71.42
2023-05-05T00:57:10.899Z,71.36
2023-05-05T00:59:12.361Z,71.21
2023-05-05T01:01:14.576Z,71.75
2023-05-05T01:03:16.743Z,71.17
2023-05-05T01:05:22.582Z,71.22
2023-05-05T01:07:41.709Z,71.07
2023-05-05T01:10:18.022Z,71.12
2023-05-05T01:12:58.678Z,71.02
2023-05-05T01:15:00.186Z,71.22
2023-05-05T01:17:10.409Z,71.25
2023-05-05T01:19:23.964Z,71.49
2023-05-05T01:21:33.731Z,71.34
2023-05-05T01:23:47.155Z,71.28
2023-05-05T01:26:09.882Z,71.01
2023-05-05T01:28:27.344Z,70.95
2023-05-05T01:30:46.335Z,71.15
2023-05-05T01:32:55.390Z,71.38
2023-05-05T01:35:09.860Z,71.14
2023-05-05T01:37:28.000Z,71.05
2023-05-05T01:39:33.424Z,71.17
2023-05-05T01:41:41.883Z,71.25
2023-05-05T01:43:46.069Z,71.24
2023-05-05T01:45:49.039Z,71.06
2023-05-05T01:47:52.656Z,70.70
2023-05-05T01:49:54.534Z,70.75
2023-05-05T01:51:57.750Z,71.37
2023-05-05T01:54:01.523Z,71.17
2023-05-05T01:56:04.543Z,71.06
2023-05-05T01:58:07.678Z,71.28
2023-05-05T02:00:11.365Z,71.01
2023-05-05T02:02:14.470Z,71.12
2023-05-05T02:04:18.574Z,71.38
2023-05-05T02:06:21.817Z,70.82
2023-05-05T02:08:26.004Z,71.32
2023-05-05T02:10:28.225Z,70.85
2023-05-05T02:12:31.624Z,71.06
2023-05-05T02:14:34.848Z,71.03
2023-05-05T02:16:41.265Z,70.90
2023-05-05T02:18:43.286Z,71.30
2023-05-05T02:20:46.835Z,70.71
2023-05-05T02:22:48.835Z,71.04
2023-05-05T02:24:50.366Z,71.50
2023-05-05T02:26:54.509Z,70.99
2023-05-05T02:29:12.663Z,71.11
2023-05-05T02:31:16.516Z,70.64
2023-05-05T02:33:22.535Z,71.26
2023-05-05T02:35:31.921Z,70.85
2023-05-05T02:37:35.636Z,71.10
2023-05-05T02:39:45.622Z,71.34
2023-05-05T02:41:50.172Z,71.29
2023-05-05T02:43:54.568Z,71.24
2023-05-05T02:45:56.043Z,71.26
2023-05-05T02:47:57.540Z,71.48
2023-05-05T02:49:59.030Z,71.07
2023-05-05T02:52:01.035Z,71.48
2023-05-05T02:54:03.007Z,71.15
2023-05-05T02:56:27.710Z,71.37
2023-05-05T02:58:31.558Z,71.09
2023-05-05T03:00:32.979Z,71.16
2023-05-05T03:02:44.661Z,70.83
2023-05-05T03:04:50.416Z,71.42
2023-05-05T03:06:57.606Z,71.02
2023-05-05T03:09:06.277Z,71.29
2023-05-05T03:11:16.364Z,70.96
2023-05-05T03:13:20.404Z,71.53
2023-05-05T03:15:25.783Z,70.96
2023-05-05T03:17:30.193Z,71.51
2023-05-05T03:19:34.452Z,70.99
2023-05-05T03:21:36.249Z,70.88
2023-05-05T03:23:38.113Z,70.95
2023-05-05T03:25:49.429Z,71.38
2023-05-05T03:27:51.102Z,71.35
2023-05-05T03:29:52.708Z,70.64
2023-05-05T03:31:54.224Z,70.85
2023-05-05T03:33:55.667Z,71.21
2023-05-05T03:35:57.142Z,71.00
2023-05-05T03:37:58.663Z,70.82
2023-05-05T03:40:00.192Z,70.85
2023-05-05T03:42:01.752Z,70.82
2023-05-05T03:44:03.322Z,71.36
2023-05-05T03:46:05.436Z,71.39
2023-05-05T03:48:07.108Z,71.73
2023-05-05T03:50:09.281Z,71.67
2023-05-05T03:52:12.191Z,70.78
2023-05-05T03:54:15.312Z,71.33
2023-05-05T03:56:16.828Z,71.19
2023-05-05T03:58:18.746Z,71.29
2023-05-05T04:00:20.479Z,70.80
2023-05-05T04:02:21.999Z,71.49
2023-05-05T04:04:23.552Z,71.40
2023-05-05T04:06:26.314Z,71.47
2023-05-05T04:08:27.959Z,71.09
2023-05-05T04:10:30.603Z,70.48
2023-05-05T04:12:32.109Z,71.21
2023-05-05T04:14:33.658Z,71.44
2023-05-05T04:16:35.151Z,70.65
2023-05-05T04:18:37.057Z,70.94
2023-05-05T04:20:38.630Z,71.02
2023-05-05T04:22:40.195Z,70.80
2023-05-05T04:24:41.970Z,70.41
2023-05-05T04:26:43.495Z,71.00
2023-05-05T04:28:44.971Z,70.47
2023-05-05T04:30:47.106Z,70.45
2023-05-05T04:32:48.685Z,70.73
2023-05-05T04:34:50.331Z,70.15
2023-05-05T04:36:51.801Z,69.82
2023-05-05T04:38:53.305Z,69.89
2023-05-05T04:40:54.853Z,69.56
2023-05-05T04:42:56.339Z,69.95
2023-05-05T04:44:57.852Z,69.31
2023-05-05T04:47:00.727Z,69.02
2023-05-05T04:49:04.979Z,69.45
2023-05-05T04:51:06.955Z,68.63
2023-05-05T04:53:08.562Z,68.49
2023-05-05T04:55:10.758Z,68.63
2023-05-05T04:57:12.223Z,68.27
2023-05-05T04:59:16.488Z,68.48
2023-05-05T05:01:18.068Z,69.01
2023-05-05T05:03:19.641Z,68.49
2023-05-05T05:05:21.653Z,68.64
2023-05-05T05:07:23.259Z,68.37
2023-05-05T05:09:24.769Z,68.48
2023-05-05T05:11:27.182Z,68.24
2023-05-05T05:13:28.634Z,68.25
2023-05-05T05:15:30.120Z,68.50
2023-05-05T05:17:31.630Z,68.48
2023-05-05T05:19:33.198Z,68.47
2023-05-05T05:21:34.665Z,67.91
2023-05-05T05:23:36.684Z,68.32
2023-05-05T05:25:38.232Z,68.18
2023-05-05T05:27:39.704Z,68.65
2023-05-05T05:29:41.186Z,68.82
2023-05-05T05:31:42.734Z,68.42
2023-05-05T05:33:44.320Z,68.16
2023-05-05T05:35:45.932Z,68.42
2023-05-05T05:37:47.730Z,68.93
2023-05-05T05:39:52.338Z,68.46
2023-05-05T05:41:53.895Z,69.03
2023-05-05T05:43:55.415Z,68.18
2023-05-05T05:45:56.976Z,67.57
2023-05-05T05:47:58.525Z,67.76
2023-05-05T05:50:00.036Z,66.97
2023-05-05T05:52:01.555Z,66.85
2023-05-05T05:54:03.027Z,66.20
2023-05-05T05:56:04.869Z,65.61
2023-05-05T05:58:06.326Z,65.75
2023-05-05T06:00:08.683Z,65.71
2023-05-05T06:02:10.759Z,65.71
2023-05-05T06:04:13.239Z,65.67
2023-05-05T06:06:14.767Z,65.59
2023-05-05T06:08:16.460Z,65.52
2023-05-05T06:10:27.577Z,65.58
2023-05-05T06:12:29.602Z,65.64
2023-05-05T06:14:31.064Z,65.55
2023-05-05T06:16:32.608Z,65.61
2023-05-05T06:18:34.155Z,65.63
2023-05-05T06:20:35.657Z,65.64
2023-05-05T06:22:37.114Z,65.72
2023-05-05T06:24:38.593Z,65.57
2023-05-05T06:26:40.046Z,65.67
2023-05-05T06:28:42.022Z,65.62
2023-05-05T06:30:43.476Z,65.43
2023-05-05T06:32:45.047Z,65.30
2023-05-05T06:34:48.160Z,65.56
2023-05-05T06:36:49.650Z,65.39
2023-05-05T06:38:51.241Z,65.36
2023-05-05T06:40:52.777Z,65.44
2023-05-05T06:42:54.261Z,65.56
2023-05-05T06:44:55.803Z,65.58
2023-05-05T06:46:57.344Z,65.42
2023-05-05T06:48:58.824Z,65.50
2023-05-05T06:51:00.322Z,65.35
2023-05-05T06:53:01.855Z,65.45
2023-05-05T06:55:04.459Z,65.34
2023-05-05T06:57:05.909Z,66.65
2023-05-05T06:59:07.809Z,67.11
2023-05-05T07:01:09.715Z,67.74
2023-05-05T07:03:11.685Z,67.53
2023-05-05T07:05:13.444Z,67.04
2023-05-05T07:07:14.902Z,66.62
2023-05-05T07:09:17.482Z,66.93
2023-05-05T07:11:22.054Z,66.77
2023-05-05T07:13:23.650Z,66.50
2023-05-05T07:15:29.401Z,66.73
2023-05-05T07:17:31.248Z,66.77
2023-05-05T07:19:32.771Z,66.90
2023-05-05T07:21:35.023Z,67.04
2023-05-05T07:23:37.909Z,67.05
2023-05-05T07:25:39.438Z,67.59
2023-05-05T07:27:41.012Z,68.29
2023-05-05T07:29:42.574Z,68.39
2023-05-05T07:31:44.118Z,68.28
2023-05-05T07:33:45.972Z,68.75
2023-05-05T07:35:47.769Z,69.06
2023-05-05T07:37:49.575Z,69.25
2023-05-05T07:39:51.029Z,73.13
2023-05-05T07:41:52.624Z,75.78
2023-05-05T07:43:54.114Z,74.35
2023-05-05T07:45:55.743Z,73.89
2023-05-05T07:47:57.540Z,72.71
2023-05-05T07:49:59.109Z,71.62
2023-05-05T07:52:00.659Z,71.04
2023-05-05T07:54:02.180Z,71.16
2023-05-05T07:56:03.993Z,70.99
2023-05-05T07:58:05.590Z,70.69
2023-05-05T08:00:08.066Z,70.68
2023-05-05T08:02:12.598Z,70.49
2023-05-05T08:04:14.217Z,70.94
2023-05-05T08:06:22.438Z,70.92
2023-05-05T08:08:25.036Z,70.08
2023-05-05T08:10:26.755Z,70.46
2023-05-05T08:12:28.212Z,70.32
2023-05-05T08:14:30.762Z,69.65
2023-05-05T08:16:32.317Z,69.56
2023-05-05T08:18:35.394Z,69.44
2023-05-05T08:20:36.891Z,68.83
2023-05-05T08:22:38.377Z,68.59
2023-05-05T08:24:39.843Z,68.20
2023-05-05T08:26:41.395Z,67.98
2023-05-05T08:28:42.907Z,68.62
2023-05-05T08:30:44.484Z,67.63
2023-05-05T08:32:46.844Z,67.25
2023-05-05T08:34:48.334Z,66.78
2023-05-05T08:36:50.930Z,66.83
2023-05-05T08:38:52.387Z,67.39
2023-05-05T08:40:53.909Z,66.13
2023-05-05T08:42:55.415Z,66.96
2023-05-05T08:44:58.944Z,68.82
2023-05-05T08:47:01.188Z,68.53
2023-05-05T08:49:05.446Z,68.32
2023-05-05T08:51:08.657Z,71.30
2023-05-05T08:53:14.218Z,70.81
2023-05-05T08:55:34.566Z,72.11
2023-05-05T08:57:45.898Z,73.73
2023-05-05T08:59:49.228Z,72.71
2023-05-05T09:01:52.804Z,72.91
2023-05-05T09:03:55.343Z,72.72
2023-05-05T09:05:57.495Z,73.67
2023-05-05T09:07:59.024Z,74.32
2023-05-05T09:10:03.100Z,74.66
2023-05-05T09:12:04.935Z,74.43
2023-05-05T09:14:06.392Z,73.47
2023-05-05T09:16:08.114Z,71.70
2023-05-05T09:18:11.879Z,71.15
2023-05-05T09:20:14.804Z,71.22
2023-05-05T09:22:16.397Z,75.09
2023-05-05T09:24:18.801Z,76.38
2023-05-05T09:26:21.054Z,76.81
2023-05-05T09:28:22.858Z,76.97
2023-05-05T09:30:25.937Z,77.34
2023-05-05T09:32:29.184Z,76.93
2023-05-05T09:34:37.358Z,77.26
2023-05-05T09:36:49.078Z,76.97
2023-05-05T09:39:04.705Z,77.13
2023-05-05T09:41:06.552Z,78.17
2023-05-05T09:43:08.081Z,79.10
2023-05-05T09:45:27.735Z,79.60
2023-05-05T09:47:36.922Z,79.52
2023-05-05T09:49:38.960Z,79.70
2023-05-05T09:51:40.795Z,79.09
2023-05-05T09:53:42.547Z,77.98
2023-05-05T09:55:57.779Z,78.06
2023-05-05T09:58:29.745Z,73.95
2023-05-05T10:00:38.978Z,69.32
2023-05-05T10:02:40.951Z,68.63
2023-05-05T10:04:42.486Z,71.09
2023-05-05T10:06:47.381Z,72.33
2023-05-05T10:09:01.151Z,72.40
2023-05-05T10:11:07.325Z,71.02
2023-05-05T10:13:10.437Z,70.83
2023-05-05T10:15:12.168Z,71.56
2023-05-05T10:17:15.834Z,72.03
2023-05-05T10:19:21.904Z,69.45
2023-05-05T10:21:25.209Z,69.54
2023-05-05T10:23:41.655Z,69.50
2023-05-05T10:25:54.915Z,65.26
2023-05-05T10:27:59.862Z,66.04
2023-05-05T10:30:06.411Z,66.10
2023-05-05T10:32:46.651Z,65.98
2023-05-05T10:34:53.309Z,65.17
2023-05-05T10:36:57.341Z,62.40
2023-05-05T10:39:00.407Z,62.67
2023-05-05T10:41:02.240Z,60.84
2023-05-05T10:43:04.425Z,61.88
2023-05-05T10:45:07.278Z,61.83
2023-05-05T10:47:09.732Z,61.46
2023-05-05T10:49:20.280Z,61.15
2023-05-05T10:51:48.331Z,59.65
2023-05-05T10:54:08.877Z,59.05
2023-05-05T10:56:32.691Z,58.93
2023-05-05T10:58:46.802Z,57.28
2023-05-05T11:00:53.296Z,56.22
2023-05-05T11:03:17.373Z,56.41
2023-05-05T11:05:21.222Z,56.44
2023-05-05T11:07:23.677Z,55.00
2023-05-05T11:09:28.703Z,54.37
2023-05-05T11:12:01.651Z,52.84
2023-05-05T11:14:22.429Z,53.87
2023-05-05T11:16:43.496Z,53.92
2023-05-05T11:18:45.042Z,52.42
2023-05-05T11:20:52.456Z,50.30
2023-05-05T11:23:03.037Z,50.56
2023-05-05T11:25:42.099Z,48.66
2023-05-05T11:28:07.979Z,47.86
2023-05-05T11:30:10.990Z,50.68
2023-05-05T11:32:14.327Z,50.01
2023-05-05T11:34:28.259Z,48.48
2023-05-05T11:36:40.757Z,48.05
2023-05-05T11:39:11.424Z,47.04
2023-05-05T11:41:19.836Z,47.41
2023-05-05T11:43:21.342Z,50.28
2023-05-05T11:45:24.500Z,50.26
2023-05-05T11:47:27.962Z,48.84
2023-05-05T11:49:39.631Z,49.42
2023-05-05T11:51:41.266Z,48.34
2023-05-05T11:53:47.636Z,46.14
2023-05-05T11:55:49.152Z,44.75
2023-05-05T11:57:51.231Z,42.74
2023-05-05T12:00:02.662Z,42.47
2023-05-05T12:02:04.891Z,41.29
2023-05-05T12:04:07.053Z,44.07
2023-05-05T12:06:09.003Z,43.36
2023-05-05T12:08:10.621Z,44.12
2023-05-05T12:10:12.236Z,48.50
2023-05-05T12:12:14.636Z,47.75
2023-05-05T12:14:17.192Z,45.90
2023-05-05T12:16:19.856Z,45.61
2023-05-05T12:18:21.924Z,48.36
2023-05-05T12:20:31.845Z,42.08
2023-05-05T12:22:33.287Z,47.10
2023-05-05T12:24:35.119Z,44.40
2023-05-05T12:26:36.625Z,46.16
2023-05-05T12:28:47.897Z,48.21
2023-05-05T12:30:59.436Z,49.01
2023-05-05T12:33:06.608Z,49.16
2023-05-05T12:35:09.698Z,47.33
2023-05-05T12:37:11.443Z,47.12
2023-05-05T12:39:13.073Z,46.95
2023-05-05T12:41:19.717Z,45.78
2023-05-05T12:43:24.922Z,45.51
2023-05-05T12:45:26.603Z,41.14
2023-05-05T12:47:32.280Z,43.98
2023-05-05T12:49:52.712Z,47.40
2023-05-05T12:51:56.268Z,49.27
2023-05-05T12:54:09.781Z,50.52
2023-05-05T12:56:29.969Z,49.21
2023-05-05T12:58:48.567Z,48.74
2023-05-05T13:01:08.226Z,45.03
2023-05-05T13:03:20.141Z,48.88
2023-05-05T13:05:40.950Z,51.26
2023-05-05T13:07:52.023Z,51.75
2023-05-05T13:10:07.311Z,51.27
2023-05-05T13:12:12.116Z,51.70
2023-05-05T13:14:13.655Z,51.60
2023-05-05T13:16:15.207Z,51.45
2023-05-05T13:18:16.777Z,52.17
2023-05-05T13:20:18.200Z,52.98
2023-05-05T13:22:19.874Z,48.18
2023-05-05T13:24:28.581Z,47.03
2023-05-05T13:26:33.121Z,50.48
2023-05-05T13:28:34.609Z,52.21
2023-05-05T13:30:36.151Z,50.80
2023-05-05T13:32:37.592Z,51.07
2023-05-05T13:34:39.418Z,53.79
2023-05-05T13:36:41.058Z,53.08
2023-05-05T13:38:42.497Z,52.72
2023-05-05T13:40:43.949Z,53.47
2023-05-05T13:42:45.524Z,53.48
2023-05-05T13:44:47.035Z,53.52
2023-05-05T13:46:48.569Z,51.53
2023-05-05T13:48:52.485Z,51.34
2023-05-05T13:50:57.619Z,52.06
2023-05-05T13:52:59.245Z,52.10
2023-05-05T13:55:00.992Z,51.71
2023-05-05T13:57:03.413Z,50.92
2023-05-05T13:59:04.889Z,53.87
2023-05-05T14:01:06.491Z,53.19
2023-05-05T14:03:07.981Z,54.14
2023-05-05T14:05:09.887Z,54.69
2023-05-05T14:07:11.857Z,54.63
2023-05-05T14:09:13.350Z,55.03
2023-05-05T14:11:17.058Z,55.08
2023-05-05T14:13:18.676Z,52.40
2023-05-05T14:15:20.325Z,53.98
2023-05-05T14:17:21.876Z,53.05
2023-05-05T14:19:23.340Z,53.88
2023-05-05T14:21:24.793Z,54.80
2023-05-05T14:23:26.232Z,55.29
2023-05-05T14:25:27.717Z,55.44
2023-05-05T14:27:29.144Z,56.10
2023-05-05T14:29:30.722Z,56.82
2023-05-05T14:31:32.231Z,56.54
2023-05-05T14:33:33.782Z,56.70
2023-05-05T14:35:35.269Z,57.79
2023-05-05T14:37:36.745Z,57.40
2023-05-05T14:39:38.166Z,57.15
2023-05-05T14:41:39.848Z,55.83
2023-05-05T14:43:41.305Z,54.23
2023-05-05T14:45:44.181Z,53.32
2023-05-05T14:47:45.910Z,54.33
2023-05-05T14:49:47.416Z,55.96
2023-05-05T14:51:48.958Z,56.49
2023-05-05T14:53:50.588Z,56.63
2023-05-05T14:55:52.122Z,56.86
2023-05-05T14:57:53.532Z,56.68
2023-05-05T14:59:54.948Z,55.06
2023-05-05T15:01:57.136Z,56.95
2023-05-05T15:03:58.841Z,56.86
2023-05-05T15:06:00.409Z,57.03
2023-05-05T15:08:01.945Z,57.92
2023-05-05T15:10:04.471Z,58.75
2023-05-05T15:12:06.499Z,59.68
2023-05-05T15:14:07.926Z,58.58
2023-05-05T15:16:09.435Z,58.77
2023-05-05T15:18:11.547Z,58.01
2023-05-05T15:20:13.193Z,56.94
2023-05-05T15:22:14.635Z,57.29
2023-05-05T15:24:16.044Z,57.25
2023-05-05T15:26:17.578Z,58.01
2023-05-05T15:28:19.082Z,59.01
2023-05-05T15:30:20.584Z,59.12
2023-05-05T15:32:22.256Z,59.67
2023-05-05T15:34:23.783Z,59.39
2023-05-05T15:36:25.215Z,59.82
2023-05-05T15:38:28.953Z,61.04
2023-05-05T15:40:30.420Z,61.08
2023-05-05T15:42:32.678Z,60.97
2023-05-05T15:44:34.165Z,60.61
2023-05-05T15:46:35.644Z,60.97
2023-05-05T15:48:37.278Z,60.72
2023-05-05T15:50:38.722Z,61.28
2023-05-05T15:52:40.241Z,61.39
2023-05-05T15:54:41.703Z,60.54
2023-05-05T15:56:43.148Z,60.67
2023-05-05T15:58:44.560Z,61.08
2023-05-05T16:00:46.095Z,61.95
2023-05-05T16:02:47.574Z,61.93
2023-05-05T16:04:49.121Z,61.17
2023-05-05T16:06:50.587Z,59.27
2023-05-05T16:08:52.073Z,59.24
2023-05-05T16:10:53.534Z,61.27
2023-05-05T16:12:54.993Z,62.10
2023-05-05T16:14:56.647Z,60.71
2023-05-05T16:16:58.747Z,58.30
2023-05-05T16:19:00.313Z,58.30
2023-05-05T16:21:02.623Z,58.89
2023-05-05T16:23:04.162Z,60.95
2023-05-05T16:25:06.469Z,62.21
2023-05-05T16:27:08.276Z,63.79
2023-05-05T16:29:09.794Z,65.37
2023-05-05T16:31:11.446Z,66.38
2023-05-05T16:33:13.040Z,67.52
2023-05-05T16:35:14.546Z,68.68
2023-05-05T16:37:16.109Z,69.92
2023-05-05T16:39:17.536Z,70.80
2023-05-05T16:41:18.979Z,72.62
2023-05-05T16:43:20.495Z,75.22
2023-05-05T16:45:21.968Z,79.36
2023-05-05T16:47:23.512Z,82.42
2023-05-05T16:49:25.022Z,83.82
2023-05-05T16:51:26.858Z,84.44
2023-05-05T16:53:28.272Z,83.89
2023-05-05T16:55:29.834Z,84.37
2023-05-05T16:57:31.678Z,86.31
2023-05-05T16:59:33.094Z,88.29
2023-05-05T17:01:35.003Z,89.82
2023-05-05T17:03:36.543Z,89.38
2023-05-05T17:05:38.198Z,88.40
2023-05-05T17:07:39.764Z,87.38
2023-05-05T17:09:41.192Z,87.04
2023-05-05T17:11:42.672Z,86.26
2023-05-05T17:13:44.110Z,84.31
2023-05-05T17:15:45.635Z,83.26
2023-05-05T17:17:47.200Z,82.60
2023-05-05T17:19:48.618Z,81.88
2023-05-05T17:21:50.155Z,82.13
2023-05-05T17:23:51.710Z,84.46
2023-05-05T17:25:53.176Z,86.36
2023-05-05T17:27:55.493Z,86.72
2023-05-05T17:29:56.960Z,89.20
2023-05-05T17:31:58.422Z,89.51
2023-05-05T17:33:59.973Z,91.01
2023-05-05T17:36:01.496Z,91.81
2023-05-05T17:38:03.024Z,91.46
2023-05-05T17:40:05.350Z,91.23
2023-05-05T17:42:06.848Z,91.62
2023-05-05T17:44:08.391Z,92.85
2023-05-05T17:46:09.869Z,93.90
2023-05-05T17:48:11.300Z,94.48
2023-05-05T17:50:12.750Z,94.80
2023-05-05T17:52:14.683Z,94.43
2023-05-05T17:54:16.319Z,94.83
2023-05-05T17:56:17.834Z,95.42
2023-05-05T17:58:19.268Z,95.70
2023-05-05T18:00:21.154Z,95.01
2023-05-05T18:02:23.970Z,95.26
2023-05-05T18:04:25.719Z,95.71
2023-05-05T18:06:28.063Z,96.70
2023-05-05T18:08:29.488Z,97.14
2023-05-05T18:10:31.057Z,97.82
2023-05-05T18:12:32.534Z,98.02
2023-05-05T18:14:33.965Z,97.70
2023-05-05T18:16:36.026Z,97.12
2023-05-05T18:18:37.598Z,93.69
2023-05-05T18:20:39.128Z,90.18
2023-05-05T18:22:40.610Z,87.84
2023-05-05T18:24:42.057Z,86.09
2023-05-05T18:26:43.516Z,84.06
2023-05-05T18:28:44.938Z,83.20
2023-05-05T18:30:46.339Z,83.52
2023-05-05T18:32:48.705Z,84.16
2023-05-05T18:34:50.277Z,85.24
2023-05-05T18:36:54.252Z,84.92
2023-05-05T18:38:56.319Z,84.36
2023-05-05T18:40:57.880Z,84.56
2023-05-05T18:42:59.372Z,84.42
2023-05-05T18:45:01.548Z,83.30
2023-05-05T18:47:03.162Z,83.02
2023-05-05T18:49:04.618Z,82.39
2023-05-05T18:51:07.432Z,82.20
2023-05-05T18:53:10.755Z,81.98
2023-05-05T18:55:12.479Z,81.66
2023-05-05T18:57:13.993Z,81.49
2023-05-05T18:59:15.455Z,80.70
2023-05-05T19:01:17.064Z,81.35
2023-05-05T19:03:19.741Z,81.21
2023-05-05T19:05:21.436Z,81.45
2023-05-05T19:07:34.312Z,81.53
2023-05-05T19:09:37.120Z,81.61
2023-05-05T19:11:41.736Z,81.97
2023-05-05T19:13:43.252Z,82.67
2023-05-05T19:15:44.723Z,83.25
2023-05-05T19:17:47.397Z,82.49
2023-05-05T19:19:49.009Z,82.46
2023-05-05T19:21:50.759Z,81.81
2023-05-05T19:23:52.302Z,81.74
2023-05-05T19:25:54.293Z,80.78
2023-05-05T19:27:55.716Z,80.80
2023-05-05T19:29:57.133Z,80.76
2023-05-05T19:31:58.643Z,81.09
2023-05-05T19:34:02.294Z,82.87
2023-05-05T19:36:03.956Z,87.13
2023-05-05T19:38:05.406Z,90.50
2023-05-05T19:40:07.568Z,92.20
2023-05-05T19:42:09.632Z,92.93
2023-05-05T19:44:11.067Z,92.29
2023-05-05T19:46:13.640Z,91.47
2023-05-05T19:48:15.719Z,91.40
2023-05-05T19:50:17.513Z,91.37
2023-05-05T19:52:22.453Z,90.79
2023-05-05T19:54:24.651Z,89.84
2023-05-05T19:56:26.219Z,90.88
2023-05-05T19:58:27.687Z,92.03
2023-05-05T20:00:29.231Z,93.84
2023-05-05T20:02:31.442Z,94.86
2023-05-05T20:04:33.109Z,95.59
2023-05-05T20:06:35.683Z,95.82
2023-05-05T20:08:37.130Z,96.15
2023-05-05T20:10:38.708Z,96.35
2023-05-05T20:12:47.481Z,97.40
2023-05-05T20:14:49.370Z,98.19
2023-05-05T20:16:50.927Z,99.39
2023-05-05T20:18:52.590Z,98.88
2023-05-05T20:20:54.053Z,99.12
2023-05-05T20:22:55.522Z,99.61
2023-05-05T20:24:58.145Z,100.00
2023-05-05T20:26:59.578Z,99.98
2023-05-05T20:29:00.992Z,100.00
2023-05-05T20:31:02.511Z,100.00
2023-05-05T20:33:04.216Z,100.00
2023-05-05T20:35:06.201Z,100.00
2023-05-05T20:37:07.776Z,100.00
2023-05-05T20:39:15.296Z,100.00
2023-05-05T20:41:16.828Z,100.00
2023-05-05T20:43:19.154Z,100.00
2023-05-05T20:45:20.602Z,100.00
2023-05-05T20:47:22.109Z,100.00
2023-05-05T20:49:23.602Z,100.00
2023-05-05T20:51:29.157Z,100.00
2023-05-05T20:53:30.674Z,100.00
2023-05-05T20:55:32.484Z,100.00
2023-05-05T20:57:33.982Z,100.00
2023-05-05T20:59:35.508Z,100.00
2023-05-05T21:01:36.964Z,100.00
2023-05-05T21:03:38.413Z,100.00
2023-05-05T21:05:41.316Z,100.00
2023-05-05T21:07:42.789Z,100.00
2023-05-05T21:09:47.707Z,98.39
2023-05-05T21:11:49.120Z,98.08
2023-05-05T21:13:50.727Z,97.27
2023-05-05T21:15:52.164Z,95.88
2023-05-05T21:17:53.803Z,95.46
2023-05-05T21:19:56.817Z,94.70
2023-05-05T21:21:59.225Z,94.03
2023-05-05T21:24:00.840Z,92.50
2023-05-05T21:26:02.412Z,92.08
2023-05-05T21:28:04.145Z,91.18
2023-05-05T21:30:08.516Z,90.11
2023-05-05T21:32:11.821Z,89.11
2023-05-05T21:34:13.367Z,88.72
2023-05-05T21:36:17.380Z,88.56
2023-05-05T21:38:18.850Z,88.07
2023-05-05T21:40:20.353Z,88.10
2023-05-05T21:42:21.819Z,87.42
2023-05-05T21:44:23.468Z,86.56
2023-05-05T21:46:25.003Z,85.71
2023-05-05T21:48:26.769Z,85.26
2023-05-05T21:50:29.527Z,85.73
2023-05-05T21:52:31.098Z,85.91
2023-05-05T21:54:32.573Z,85.33
2023-05-05T21:56:34.688Z,86.22
2023-05-05T21:58:36.237Z,87.58
2023-05-05T22:00:37.793Z,88.22
2023-05-05T22:02:39.348Z,88.02
2023-05-05T22:04:40.843Z,87.42
2023-05-05T22:06:42.262Z,87.57
2023-05-05T22:08:43.986Z,87.88
2023-05-05T22:10:45.527Z,88.11
2023-05-05T22:12:48.046Z,88.21
2023-05-05T22:14:49.538Z,87.48
2023-05-05T22:16:51.105Z,86.93
2023-05-05T22:18:52.546Z,86.84
2023-05-05T22:20:54.000Z,89.95
2023-05-05T22:22:55.499Z,91.49
2023-05-05T22:24:57.432Z,92.74
2023-05-05T22:26:58.929Z,93.75
2023-05-05T22:29:00.541Z,94.28
2023-05-05T22:31:02.086Z,94.58
2023-05-05T22:33:03.786Z,95.05
2023-05-05T22:35:06.039Z,95.47
2023-05-05T22:37:07.555Z,95.85
2023-05-05T22:39:09.034Z,95.98
2023-05-05T22:41:10.697Z,96.96
2023-05-05T22:43:12.226Z,97.40
2023-05-05T22:45:13.855Z,97.85
2023-05-05T22:47:15.359Z,97.93
2023-05-05T22:49:16.896Z,98.91
2023-05-05T22:51:18.879Z,99.01
2023-05-05T22:53:20.439Z,99.77
2023-05-05T22:55:21.897Z,100.00
2023-05-05T22:57:23.484Z,100.00
2023-05-05T22:59:24.980Z,100.00
2023-05-05T23:01:26.561Z,100.00
2023-05-05T23:03:28.083Z,100.00
2023-05-05T23:05:29.560Z,100.00
2023-05-05T23:07:30.987Z,100.00
2023-05-05T23:09:32.401Z,100.00
2023-05-05T23:11:34.028Z,100.00
2023-05-05T23:13:35.518Z,100.00
2023-05-05T23:15:37.000Z,100.00
2023-05-05T23:17:38.455Z,100.00
2023-05-05T23:19:39.916Z,100.00
2023-05-05T23:21:52.112Z,100.00
2023-05-05T23:23:55.391Z,100.00
2023-05-05T23:25:56.824Z,100.00
2023-05-05T23:27:58.250Z,100.00
2023-05-05T23:29:59.728Z,100.00
2023-05-05T23:32:01.212Z,100.00
2023-05-05T23:34:02.637Z,100.00
2023-05-05T23:36:04.483Z,100.00
2023-05-05T23:38:06.634Z,100.00
2023-05-05T23:40:08.856Z,100.00
2023-05-05T23:42:10.298Z,100.00
2023-05-05T23:44:11.751Z,100.00
2023-05-05T23:46:13.287Z,100.00
2023-05-05T23:48:14.731Z,100.00
2023-05-05T23:50:16.184Z,100.00
2023-05-05T23:52:17.768Z,100.00
2023-05-05T23:54:19.226Z,100.00
2023-05-05T23:56:20.635Z,100.00
2023-05-05T23:58:22.073Z,100.00
